createdAt,value
2022-11-29T00:01:34.846Z,10.98
2022-11-29T00:04:02.120Z,17.98
2022-11-29T00:06:32.237Z,16.95
2022-11-29T00:09:04.474Z,17.17
2022-11-29T00:11:53.013Z,14.25
2022-11-29T00:14:20.549Z,16.10
2022-11-29T00:17:02.227Z,15.60
2022-11-29T00:19:29.770Z,16.45
2022-11-29T00:21:56.841Z,18.52
2022-11-29T00:24:23.814Z,17.30
2022-11-29T00:26:50.671Z,17.83
2022-11-29T00:31:44.878Z,16.60
2022-11-29T00:34:12.170Z,14.18
2022-11-29T00:36:39.948Z,18.33
2022-11-29T00:39:07.168Z,12.02
2022-11-29T00:41:34.259Z,15.88
2022-11-29T00:44:01.198Z,18.95
2022-11-29T00:46:28.140Z,18.65
2022-11-29T00:48:55.065Z,17.75
2022-11-29T00:51:21.956Z,17.92
2022-11-29T00:53:49.004Z,16.58
2022-11-29T00:56:16.397Z,15.80
2022-11-29T00:58:44.311Z,15.60
2022-11-29T01:01:11.903Z,14.73
2022-11-29T01:03:38.959Z,17.67
2022-11-29T01:06:08.347Z,13.18
2022-11-29T01:08:35.517Z,18.83
2022-11-29T01:11:09.551Z,18.83
2022-11-29T01:13:36.712Z,13.32
2022-11-29T01:16:04.919Z,20.60
2022-11-29T01:18:32.335Z,18.65
2022-11-29T01:21:07.063Z,18.02
2022-11-29T01:23:34.846Z,21.10
2022-11-29T01:26:07.670Z,16.50
2022-11-29T01:28:35.123Z,13.23
2022-11-29T01:31:13.881Z,16.23
2022-11-29T01:33:40.958Z,20.02
2022-11-29T01:36:08.584Z,22.75
2022-11-29T01:38:36.428Z,11.27
2022-11-29T01:41:19.707Z,21.77
2022-11-29T01:44:14.593Z,11.90
2022-11-29T01:46:43.926Z,20.90
2022-11-29T01:49:16.121Z,19.45
2022-11-29T01:51:47.002Z,22.42
2022-11-29T01:54:14.653Z,17.65
2022-11-29T01:56:42.139Z,19.55
2022-11-29T01:59:13.734Z,17.20
2022-11-29T02:01:40.792Z,18.00
2022-11-29T02:04:08.007Z,14.50
2022-11-29T02:06:35.846Z,19.90
2022-11-29T02:09:03.535Z,18.98
2022-11-29T02:11:46.601Z,18.10
2022-11-29T02:14:56.184Z,16.85
2022-11-29T02:17:52.202Z,19.98
2022-11-29T02:20:21.605Z,16.90
2022-11-29T02:23:06.609Z,15.45
2022-11-29T02:25:51.848Z,15.88
2022-11-29T02:29:03.041Z,14.75
2022-11-29T02:31:38.943Z,15.48
2022-11-29T02:34:18.148Z,16.48
2022-11-29T02:36:51.730Z,17.08
2022-11-29T02:39:44.304Z,14.48
2022-11-29T02:42:56.610Z,18.20
2022-11-29T02:45:49.534Z,17.83
2022-11-29T02:48:34.082Z,14.75
2022-11-29T02:51:06.654Z,16.48
2022-11-29T02:53:56.380Z,16.80
2022-11-29T02:56:41.039Z,14.10
2022-11-29T02:59:17.008Z,14.90
2022-11-29T03:01:53.670Z,17.85
2022-11-29T03:05:04.226Z,15.07
2022-11-29T03:07:34.295Z,15.48
2022-11-29T03:10:08.776Z,16.23
2022-11-29T03:12:42.580Z,13.38
2022-11-29T03:15:48.636Z,14.65
2022-11-29T03:18:25.992Z,13.85
2022-11-29T03:23:32.518Z,14.80
2022-11-29T03:26:07.995Z,13.85
2022-11-29T03:28:42.039Z,12.70
2022-11-29T03:31:21.593Z,9.85
2022-11-29T03:34:01.374Z,15.75
2022-11-29T03:36:30.269Z,14.27
2022-11-29T03:39:01.170Z,13.98
2022-11-29T03:41:33.563Z,13.90
2022-11-29T03:44:19.395Z,16.48
2022-11-29T03:47:07.211Z,15.20
2022-11-29T03:49:48.257Z,13.80
2022-11-29T03:52:23.967Z,15.40
2022-11-29T03:55:09.086Z,16.30
2022-11-29T03:57:59.591Z,14.23
2022-11-29T04:00:30.130Z,11.73
2022-11-29T04:03:21.356Z,14.15
2022-11-29T04:06:20.936Z,14.20
2022-11-29T04:08:56.363Z,11.18
2022-11-29T04:12:04.937Z,12.52
2022-11-29T04:14:34.990Z,12.85
2022-11-29T04:17:49.328Z,13.32
2022-11-29T04:20:48.594Z,14.35
2022-11-29T04:23:43.680Z,10.25
2022-11-29T04:26:44.576Z,13.93
2022-11-29T04:29:22.555Z,14.07
2022-11-29T04:32:07.613Z,13.27
2022-11-29T04:34:56.173Z,14.35
2022-11-29T04:37:34.987Z,15.40
2022-11-29T04:40:22.497Z,14.23
2022-11-29T04:43:28.129Z,15.77
2022-11-29T04:46:05.783Z,13.27
2022-11-29T04:48:38.445Z,14.07
2022-11-29T04:51:34.626Z,14.40
2022-11-29T04:54:40.362Z,12.52
2022-11-29T04:57:33.352Z,14.65
2022-11-29T05:00:16.423Z,13.35
2022-11-29T05:02:55.050Z,14.73
2022-11-29T05:05:43.758Z,13.85
2022-11-29T05:08:24.418Z,13.02
2022-11-29T05:10:51.215Z,12.02
2022-11-29T05:16:07.936Z,12.07
2022-11-29T05:19:02.457Z,16.60
2022-11-29T05:21:34.915Z,15.02
2022-11-29T05:24:17.345Z,16.10
2022-11-29T05:27:11.004Z,14.75
2022-11-29T05:29:52.154Z,15.50
2022-11-29T05:32:57.967Z,7.80
2022-11-29T05:35:46.561Z,14.60
2022-11-29T05:38:39.493Z,13.60
2022-11-29T05:41:44.312Z,15.30
2022-11-29T05:44:17.734Z,16.08
2022-11-29T05:46:59.503Z,15.32
2022-11-29T05:49:37.025Z,12.10
2022-11-29T05:52:17.095Z,6.35
2022-11-29T05:55:02.243Z,15.40
2022-11-29T05:57:55.873Z,15.48
2022-11-29T06:00:23.186Z,18.05
2022-11-29T06:03:31.571Z,8.80
2022-11-29T06:06:08.326Z,12.90
2022-11-29T06:09:13.456Z,17.17
2022-11-29T06:11:47.838Z,16.50
2022-11-29T06:14:21.646Z,11.30
2022-11-29T06:17:10.103Z,12.90
2022-11-29T06:19:53.340Z,17.30
2022-11-29T06:22:58.578Z,13.85
2022-11-29T06:25:39.507Z,17.02
2022-11-29T06:28:09.271Z,9.73
2022-11-29T06:30:55.807Z,14.77
2022-11-29T06:33:25.727Z,9.88
2022-11-29T06:36:10.453Z,7.12
2022-11-29T06:38:37.602Z,11.68
2022-11-29T06:41:04.798Z,6.43
2022-11-29T06:43:32.103Z,17.87
2022-11-29T06:46:16.379Z,10.32
2022-11-29T06:49:01.891Z,8.75
2022-11-29T06:51:42.188Z,14.93
2022-11-29T06:54:16.893Z,12.18
2022-11-29T06:56:51.846Z,10.38
2022-11-29T06:59:57.543Z,9.55
2022-11-29T07:02:44.820Z,10.73
2022-11-29T07:05:17.297Z,13.07
2022-11-29T07:07:44.526Z,10.13
2022-11-29T07:10:17.420Z,12.63
2022-11-29T07:12:48.898Z,7.37
2022-11-29T07:15:21.368Z,19.45
2022-11-29T07:18:29.023Z,12.32
2022-11-29T07:21:31.274Z,9.73
2022-11-29T07:24:04.200Z,15.75
2022-11-29T07:26:41.126Z,14.35
2022-11-29T07:29:35.924Z,12.75
2022-11-29T07:32:23.799Z,11.57
2022-11-29T07:34:56.615Z,12.15
2022-11-29T07:37:39.582Z,10.48
2022-11-29T07:40:37.816Z,15.52
2022-11-29T07:45:50.571Z,11.63
2022-11-29T07:48:18.096Z,13.93
2022-11-29T07:50:45.543Z,13.70
2022-11-29T07:53:17.916Z,11.32
2022-11-29T07:55:45.195Z,11.60
2022-11-29T07:58:13.500Z,14.13
2022-11-29T08:00:42.427Z,13.13
2022-11-29T08:03:10.112Z,7.00
2022-11-29T08:05:38.676Z,10.23
2022-11-29T08:08:06.282Z,8.43
2022-11-29T08:10:33.203Z,7.32
2022-11-29T08:13:00.050Z,13.93
2022-11-29T08:17:54.520Z,8.35
2022-11-29T08:23:00.728Z,9.73
2022-11-29T08:25:28.176Z,8.75
2022-11-29T08:27:56.835Z,7.37
2022-11-29T08:30:44.890Z,11.50
2022-11-29T08:33:24.609Z,10.75
2022-11-29T08:35:51.461Z,11.07
2022-11-29T08:40:44.997Z,9.27
2022-11-29T08:43:11.893Z,8.05
2022-11-29T08:45:38.799Z,9.05
2022-11-29T08:48:06.106Z,10.07
2022-11-29T08:50:33.353Z,11.65
2022-11-29T08:53:18.609Z,10.10
2022-11-29T08:55:46.820Z,11.93
2022-11-29T08:58:15.342Z,10.77
2022-11-29T09:00:46.532Z,11.23
2022-11-29T09:03:31.858Z,9.65
2022-11-29T09:05:59.830Z,7.82
2022-11-29T09:08:26.763Z,9.82
2022-11-29T09:10:53.695Z,9.45
2022-11-29T09:13:20.641Z,9.15
2022-11-29T09:15:47.539Z,11.07
2022-11-29T09:18:14.419Z,12.93
2022-11-29T09:20:44.713Z,13.07
2022-11-29T09:23:13.219Z,10.05
2022-11-29T09:25:40.194Z,14.35
2022-11-29T09:28:07.617Z,12.20
2022-11-29T09:30:36.709Z,8.43
2022-11-29T09:33:05.078Z,12.52
2022-11-29T09:35:32.295Z,11.95
2022-11-29T09:37:59.269Z,10.98
2022-11-29T09:40:38.296Z,11.48
2022-11-29T09:43:21.421Z,10.20
2022-11-29T09:45:51.983Z,11.68
2022-11-29T09:48:59.509Z,8.65
2022-11-29T09:51:54.017Z,10.63
2022-11-29T09:55:02.223Z,11.05
2022-11-29T09:57:30.075Z,12.00
2022-11-29T10:00:00.718Z,8.25
2022-11-29T10:02:33.752Z,6.07
2022-11-29T10:05:12.487Z,12.32
2022-11-29T10:08:02.513Z,15.95
2022-11-29T10:10:41.736Z,11.40
2022-11-29T10:13:23.441Z,7.75
2022-11-29T10:15:55.817Z,10.95
2022-11-29T10:18:36.625Z,10.07
2022-11-29T10:21:12.832Z,9.60
2022-11-29T10:23:44.447Z,9.43
2022-11-29T10:26:12.948Z,14.48
2022-11-29T10:28:45.157Z,13.20
2022-11-29T10:31:32.205Z,11.48
2022-11-29T10:34:01.517Z,13.87
2022-11-29T10:36:33.552Z,13.65
2022-11-29T10:39:11.414Z,13.23
2022-11-29T10:41:41.137Z,15.77
2022-11-29T10:44:12.613Z,14.38
2022-11-29T10:46:39.532Z,11.77
2022-11-29T10:49:11.073Z,13.77
2022-11-29T10:51:39.121Z,12.75
2022-11-29T10:54:37.954Z,10.50
2022-11-29T10:57:09.860Z,11.55
2022-11-29T10:59:36.723Z,11.00
2022-11-29T11:04:37.946Z,9.23
2022-11-29T11:07:05.276Z,11.30
2022-11-29T11:09:43.098Z,12.77
2022-11-29T11:12:17.349Z,12.55
2022-11-29T11:14:45.394Z,11.27
2022-11-29T11:17:26.455Z,8.10
2022-11-29T11:20:19.647Z,13.57
2022-11-29T11:22:59.381Z,12.82
2022-11-29T11:25:38.305Z,11.05
2022-11-29T11:28:24.365Z,12.85
2022-11-29T11:30:54.450Z,13.90
2022-11-29T11:33:34.225Z,9.60
2022-11-29T11:36:20.419Z,11.52
2022-11-29T11:38:53.493Z,11.38
2022-11-29T11:41:45.975Z,11.98
2022-11-29T11:44:46.866Z,12.93
2022-11-29T11:47:20.836Z,10.43
2022-11-29T11:49:50.722Z,12.93
2022-11-29T11:52:26.295Z,14.65
2022-11-29T11:55:01.070Z,10.48
2022-11-29T11:57:28.311Z,14.85
2022-11-29T12:00:02.040Z,10.15
2022-11-29T12:02:40.333Z,10.70
2022-11-29T12:05:14.260Z,10.57
2022-11-29T12:08:07.384Z,14.13
2022-11-29T12:10:35.071Z,10.68
2022-11-29T12:13:02.283Z,10.93
2022-11-29T12:15:33.427Z,9.95
2022-11-29T12:18:12.570Z,7.78
2022-11-29T12:21:02.001Z,14.05
2022-11-29T12:23:46.746Z,9.93
2022-11-29T12:26:57.535Z,12.95
2022-11-29T12:29:27.544Z,14.05
2022-11-29T12:32:25.444Z,10.73
2022-11-29T12:35:18.637Z,14.55
2022-11-29T12:37:54.998Z,6.85
2022-11-29T12:40:40.389Z,15.77
2022-11-29T12:43:45.843Z,14.32
2022-11-29T12:46:18.961Z,12.15
2022-11-29T12:49:12.189Z,12.00
2022-11-29T12:52:07.185Z,11.07
2022-11-29T12:54:43.427Z,12.10
2022-11-29T12:57:43.820Z,12.37
2022-11-29T13:00:17.048Z,16.50
2022-11-29T13:03:05.255Z,13.43
2022-11-29T13:05:38.189Z,14.02
2022-11-29T13:08:14.067Z,15.27
2022-11-29T13:10:58.624Z,6.80
2022-11-29T13:13:41.410Z,14.10
2022-11-29T13:16:40.512Z,11.93
2022-11-29T13:19:27.773Z,15.82
2022-11-29T13:22:20.916Z,16.75
2022-11-29T13:24:51.195Z,14.63
2022-11-29T13:27:23.775Z,13.73
2022-11-29T13:29:51.054Z,15.05
2022-11-29T13:32:35.888Z,14.00
2022-11-29T13:35:30.384Z,14.43
2022-11-29T13:38:21.629Z,13.25
2022-11-29T13:40:54.794Z,16.73
2022-11-29T13:43:45.756Z,13.38
2022-11-29T13:46:30.303Z,15.30
2022-11-29T13:48:57.375Z,13.00
2022-11-29T13:51:28.922Z,15.27
2022-11-29T13:53:57.002Z,17.33
2022-11-29T13:56:37.047Z,13.82
2022-11-29T13:59:09.400Z,18.95
2022-11-29T14:01:47.909Z,20.62
2022-11-29T14:04:39.320Z,18.50
2022-11-29T14:07:19.820Z,15.50
2022-11-29T14:09:59.534Z,15.10
2022-11-29T14:12:39.710Z,15.25
2022-11-29T14:15:27.797Z,11.88
2022-11-29T14:18:05.406Z,13.23
2022-11-29T14:20:32.639Z,14.27
2022-11-29T14:23:05.698Z,13.02
2022-11-29T14:25:55.470Z,19.80
2022-11-29T14:28:22.270Z,20.98
2022-11-29T14:33:29.297Z,19.12
2022-11-29T14:36:19.364Z,20.85
2022-11-29T14:38:51.819Z,21.17
2022-11-29T14:41:46.212Z,21.15
2022-11-29T14:44:30.248Z,20.33
2022-11-29T14:47:07.232Z,17.42
2022-11-29T14:49:42.480Z,19.85
2022-11-29T14:52:15.659Z,21.37
2022-11-29T14:55:14.564Z,21.62
2022-11-29T14:57:47.491Z,21.33
2022-11-29T15:00:24.345Z,21.10
2022-11-29T15:02:55.634Z,20.55
2022-11-29T15:05:35.395Z,22.30
2022-11-29T15:08:15.310Z,19.58
2022-11-29T15:10:52.149Z,18.58
2022-11-29T15:13:29.575Z,22.33
2022-11-29T15:19:22.761Z,21.17
2022-11-29T15:21:52.584Z,22.70
2022-11-29T15:24:20.566Z,22.52
2022-11-29T15:27:02.080Z,20.77
2022-11-29T15:29:30.872Z,18.48
2022-11-29T15:32:00.715Z,17.17
2022-11-29T15:34:53.490Z,15.55
2022-11-29T15:37:39.565Z,15.38
2022-11-29T15:40:34.523Z,21.75
2022-11-29T15:43:14.801Z,19.55
2022-11-29T15:45:47.399Z,18.02
2022-11-29T15:48:17.296Z,20.25
2022-11-29T15:50:49.825Z,21.92
2022-11-29T15:53:21.024Z,19.08
2022-11-29T15:55:49.769Z,19.65
2022-11-29T15:58:17.676Z,23.12
2022-11-29T16:00:49.788Z,16.67
2022-11-29T16:03:25.421Z,14.63
2022-11-29T16:06:00.631Z,17.80
2022-11-29T16:08:30.577Z,19.75
2022-11-29T16:10:58.026Z,19.30
2022-11-29T16:13:41.359Z,17.58
2022-11-29T16:16:21.692Z,19.85
2022-11-29T16:18:50.187Z,23.30
2022-11-29T16:21:30.115Z,11.52
2022-11-29T16:23:57.944Z,17.23
2022-11-29T16:26:29.067Z,17.23
2022-11-29T16:28:59.256Z,7.53
2022-11-29T16:31:35.706Z,17.25
2022-11-29T16:34:15.203Z,16.50
2022-11-29T16:36:42.110Z,17.90
2022-11-29T16:39:24.832Z,12.77
2022-11-29T16:42:24.694Z,13.70
2022-11-29T16:45:00.439Z,15.98
2022-11-29T16:47:29.652Z,15.27
2022-11-29T16:50:02.577Z,21.48
2022-11-29T16:52:34.055Z,20.62
2022-11-29T16:55:00.950Z,12.85
2022-11-29T16:57:29.091Z,15.73
2022-11-29T16:59:55.998Z,11.75
2022-11-29T17:02:22.987Z,17.12
2022-11-29T17:04:51.541Z,21.48
2022-11-29T17:07:32.381Z,25.70
2022-11-29T17:09:59.774Z,27.55
2022-11-29T17:12:26.668Z,21.90
2022-11-29T17:14:53.521Z,27.85
2022-11-29T17:19:47.209Z,19.33
2022-11-29T17:22:14.255Z,17.95
2022-11-29T17:24:47.444Z,20.30
2022-11-29T17:27:15.123Z,23.48
2022-11-29T17:29:41.978Z,21.00
2022-11-29T17:34:35.710Z,18.42
2022-11-29T17:37:02.752Z,23.27
2022-11-29T17:39:29.601Z,22.17
2022-11-29T17:44:23.179Z,22.55
2022-11-29T17:46:50.031Z,22.48
2022-11-29T17:51:53.761Z,23.85
2022-11-29T17:54:22.455Z,12.40
2022-11-29T17:56:49.755Z,19.90
2022-11-29T17:59:16.759Z,23.02
2022-11-29T18:01:43.718Z,19.85
2022-11-29T18:04:10.687Z,19.80
2022-11-29T18:06:40.079Z,21.62
2022-11-29T18:09:09.116Z,21.45
2022-11-29T18:11:47.081Z,24.55
2022-11-29T18:14:17.401Z,19.50
2022-11-29T18:16:45.725Z,24.08
2022-11-29T18:19:15.539Z,22.60
2022-11-29T18:21:42.849Z,23.92
2022-11-29T18:24:09.968Z,25.60
2022-11-29T18:26:37.339Z,19.83
2022-11-29T18:29:05.746Z,20.45
2022-11-29T18:31:34.906Z,26.02
2022-11-29T18:34:07.176Z,21.77
2022-11-29T18:36:36.453Z,26.00
2022-11-29T18:39:08.958Z,20.83
2022-11-29T18:41:36.552Z,22.27
2022-11-29T18:44:04.857Z,23.12
2022-11-29T18:46:36.778Z,22.87
2022-11-29T18:49:05.857Z,18.08
2022-11-29T18:51:33.426Z,21.65
2022-11-29T18:54:01.166Z,23.12
2022-11-29T18:56:30.126Z,22.87
2022-11-29T18:59:11.192Z,23.40
2022-11-29T19:01:43.106Z,23.42
2022-11-29T19:04:12.761Z,22.17
2022-11-29T19:06:40.380Z,22.20
2022-11-29T19:09:11.627Z,22.95
2022-11-29T19:11:38.834Z,23.48
2022-11-29T19:14:11.476Z,25.92
2022-11-29T19:16:44.275Z,23.30
2022-11-29T19:19:11.898Z,25.25
2022-11-29T19:21:40.200Z,20.42
2022-11-29T19:24:14.029Z,22.40
2022-11-29T19:26:41.880Z,22.10
2022-11-29T19:29:08.753Z,26.70
2022-11-29T19:34:02.348Z,15.32
2022-11-29T19:36:31.014Z,22.62
2022-11-29T19:39:00.690Z,19.40
2022-11-29T19:41:32.269Z,21.05
2022-11-29T19:44:01.681Z,19.95
2022-11-29T19:46:30.931Z,20.70
2022-11-29T19:48:59.022Z,19.50
2022-11-29T19:51:26.835Z,23.58
2022-11-29T19:54:02.370Z,23.10
2022-11-29T19:56:30.193Z,23.27
2022-11-29T19:58:57.183Z,23.33
2022-11-29T20:01:28.202Z,22.98
2022-11-29T20:03:55.734Z,22.90
2022-11-29T20:06:23.933Z,23.62
2022-11-29T20:08:50.864Z,18.27
2022-11-29T20:11:18.491Z,22.52
2022-11-29T20:13:52.277Z,23.08
2022-11-29T20:16:19.587Z,25.10
2022-11-29T20:18:51.000Z,21.37
2022-11-29T20:21:24.671Z,18.58
2022-11-29T20:23:56.375Z,18.67
2022-11-29T20:26:23.921Z,21.30
2022-11-29T20:28:50.975Z,18.95
2022-11-29T20:31:21.562Z,24.70
2022-11-29T20:33:49.804Z,20.98
2022-11-29T20:36:43.446Z,25.05
2022-11-29T20:39:34.957Z,24.63
2022-11-29T20:42:32.473Z,22.75
2022-11-29T20:45:01.450Z,23.12
2022-11-29T20:47:33.702Z,23.75
2022-11-29T20:50:00.697Z,23.70
2022-11-29T20:52:42.671Z,22.30
2022-11-29T20:55:09.896Z,22.65
2022-11-29T20:57:38.503Z,25.98
2022-11-29T21:00:11.515Z,27.13
2022-11-29T21:02:38.906Z,24.00
2022-11-29T21:05:06.516Z,24.50
2022-11-29T21:07:33.473Z,24.02
2022-11-29T21:10:01.509Z,24.75
2022-11-29T21:12:29.895Z,24.60
2022-11-29T21:14:57.503Z,21.83
2022-11-29T21:17:28.793Z,26.90
2022-11-29T21:20:00.350Z,23.35
2022-11-29T21:22:39.236Z,19.40
2022-11-29T21:25:40.179Z,21.05
2022-11-29T21:28:12.384Z,23.40
2022-11-29T21:30:39.957Z,22.50
2022-11-29T21:33:07.274Z,22.25
2022-11-29T21:35:34.208Z,19.98
2022-11-29T21:38:02.147Z,22.62
2022-11-29T21:40:29.058Z,23.17
2022-11-29T21:42:56.239Z,22.73
2022-11-29T21:45:23.095Z,28.00
2022-11-29T21:50:16.770Z,22.83
2022-11-29T21:52:44.580Z,22.83
2022-11-29T21:55:11.641Z,22.95
2022-11-29T21:57:39.074Z,14.82
2022-11-29T22:00:06.516Z,18.35
2022-11-29T22:02:33.474Z,23.98
2022-11-29T22:05:00.412Z,19.12
2022-11-29T22:09:54.113Z,17.10
2022-11-29T22:12:33.861Z,17.55
2022-11-29T22:15:01.336Z,17.75
2022-11-29T22:19:54.888Z,16.35
2022-11-29T22:22:21.738Z,20.15
2022-11-29T22:27:18.570Z,20.43
2022-11-29T22:29:45.622Z,15.65
2022-11-29T22:32:12.464Z,17.42
2022-11-29T22:37:06.119Z,17.67
2022-11-29T22:39:33.107Z,21.60
2022-11-29T22:41:59.951Z,21.48
2022-11-29T22:46:53.539Z,20.73
2022-11-29T22:49:20.495Z,25.33
2022-11-29T22:51:47.368Z,23.90
2022-11-29T22:54:17.599Z,25.52
2022-11-29T22:56:45.511Z,21.85
2022-11-29T22:59:12.528Z,24.20
2022-11-29T23:01:40.693Z,21.67
2022-11-29T23:04:08.692Z,20.98
2022-11-29T23:06:41.503Z,24.80
2022-11-29T23:09:16.686Z,19.80
2022-11-29T23:11:45.561Z,22.95
2022-11-29T23:14:12.863Z,24.10
2022-11-29T23:16:39.818Z,23.40
2022-11-29T23:19:06.852Z,22.52
2022-11-29T23:21:35.800Z,22.20
2022-11-29T23:24:03.261Z,23.12
2022-11-29T23:26:34.116Z,22.80
2022-11-29T23:29:01.015Z,22.92
2022-11-29T23:31:27.988Z,23.23
2022-11-29T23:33:55.066Z,23.90
2022-11-29T23:36:21.972Z,22.67
2022-11-29T23:38:48.983Z,23.95
2022-11-29T23:41:16.071Z,23.15
2022-11-29T23:43:43.048Z,22.27
2022-11-29T23:46:15.392Z,21.95
2022-11-29T23:48:43.059Z,22.10
2022-11-29T23:51:10.757Z,22.77
2022-11-29T23:53:37.821Z,24.02
2022-11-29T23:56:07.567Z,22.83
2022-11-29T23:58:35.043Z,22.67
